Time;durP1;ratioP1;P1;durP2;ratioP2;P2;SDS_P1;SDS_P2;PMS_P1;PMS_P2;Temp;Humidity;BMP_temperature;BMP_pressure;BME280_temperature;BME280_humidity;BME280_pressure;Samples;Min_cycle;Max_cycle;Signal;HPM_P1;HPM_P2
2023/04/09 00:01:34;;;;;;;27.47;23.97;;;11.00;99.90;;;;;;5016718;28;20485;-82
2023/04/09 00:04:01;;;;;;;30.03;24.50;;;10.90;99.90;;;;;;5017801;28;21276;-83
2023/04/09 00:06:28;;;;;;;26.33;22.60;;;10.90;99.90;;;;;;5003169;28;20518;-84
2023/04/09 00:08:54;;;;;;;29.10;25.30;;;11.10;99.90;;;;;;5025221;28;20469;-83
2023/04/09 00:11:21;;;;;;;26.97;23.50;;;11.40;99.90;;;;;;5018259;28;20477;-81
2023/04/09 00:13:48;;;;;;;26.70;23.20;;;11.40;99.90;;;;;;5035984;28;20493;-82
2023/04/09 00:16:15;;;;;;;28.17;23.70;;;11.30;99.90;;;;;;5019563;28;20443;-81
2023/04/09 00:18:42;;;;;;;27.47;23.37;;;11.30;99.90;;;;;;5023609;28;20539;-81
2023/04/09 00:21:09;;;;;;;26.30;23.17;;;11.10;99.90;;;;;;5008515;28;20477;-83
2023/04/09 00:23:36;;;;;;;26.07;22.80;;;11.00;99.90;;;;;;5020530;28;21303;-83
2023/04/09 00:26:03;;;;;;;27.97;23.27;;;10.80;99.90;;;;;;5010548;28;20559;-84
2023/04/09 00:28:29;;;;;;;26.77;22.80;;;10.90;99.90;;;;;;5025580;28;21197;-81
2023/04/09 00:30:56;;;;;;;25.03;20.80;;;10.90;99.90;;;;;;5029735;28;20517;-82
2023/04/09 00:33:23;;;;;;;27.20;22.50;;;11.00;99.90;;;;;;5020909;28;20458;-82
2023/04/09 00:35:50;;;;;;;26.60;20.70;;;10.90;99.90;;;;;;5017159;28;22399;-82
2023/04/09 00:38:17;;;;;;;25.27;21.37;;;10.80;99.90;;;;;;5005717;28;20464;-82
2023/04/09 00:40:48;;;;;;;23.03;20.63;;;10.70;99.90;;;;;;4997720;28;20461;-82
2023/04/09 00:43:16;;;;;;;25.63;21.20;;;10.60;99.90;;;;;;4999563;28;20544;-82
2023/04/09 00:45:44;;;;;;;23.97;20.23;;;10.60;99.90;;;;;;5014726;28;20496;-83
2023/04/09 00:48:15;;;;;;;24.10;21.50;;;10.70;99.90;;;;;;5006927;28;20468;-84
2023/04/09 00:50:42;;;;;;;23.80;21.30;;;10.70;99.90;;;;;;5012708;28;20491;-84
2023/04/09 00:53:11;;;;;;;25.30;20.93;;;10.50;99.90;;;;;;5007395;28;21057;-83
2023/04/09 00:55:41;;;;;;;26.53;20.63;;;10.60;99.90;;;;;;4999634;28;20710;-82
2023/04/09 00:58:08;;;;;;;22.70;19.53;;;10.70;99.90;;;;;;4999901;28;20466;-83
2023/04/09 01:00:34;;;;;;;23.63;20.57;;;10.70;99.90;;;;;;5007595;28;20450;-81
2023/04/09 01:03:02;;;;;;;26.77;22.10;;;10.70;99.90;;;;;;5005853;28;20537;-82
2023/04/09 01:05:37;;;;;;;24.43;20.93;;;10.70;99.90;;;;;;5001758;28;20489;-82
2023/04/09 01:08:23;;;;;;;21.73;19.40;;;10.60;99.90;;;;;;5010237;28;20547;-82
2023/04/09 01:11:32;;;;;;;28.23;22.07;;;10.60;99.90;;;;;;5010041;28;20517;-84
2023/04/09 01:14:20;;;;;;;22.13;18.63;;;10.60;99.90;;;;;;5002752;28;20489;-84
2023/04/09 01:17:03;;;;;;;27.67;21.27;;;10.50;99.90;;;;;;5015891;28;20459;-84
2023/04/09 01:19:49;;;;;;;25.60;20.87;;;10.50;99.90;;;;;;5010092;28;20450;-81
2023/04/09 01:22:47;;;;;;;24.50;20.07;;;10.50;99.90;;;;;;5004388;28;20988;-83
2023/04/09 01:25:29;;;;;;;22.57;19.57;;;10.50;99.90;;;;;;5011695;28;20559;-83
2023/04/09 01:28:19;;;;;;;25.87;20.50;;;10.30;99.90;;;;;;5006327;28;20450;-82
2023/04/09 01:30:56;;;;;;;25.77;20.90;;;10.40;99.90;;;;;;5001404;28;20485;-84
2023/04/09 01:33:24;;;;;;;26.73;20.23;;;10.40;99.90;;;;;;5006060;28;20525;-82
2023/04/09 01:35:52;;;;;;;25.20;20.47;;;10.20;99.90;;;;;;5000658;28;20541;-84
2023/04/09 01:38:21;;;;;;;25.83;20.83;;;10.20;99.90;;;;;;4997155;28;20541;-84
2023/04/09 01:40:49;;;;;;;26.70;22.20;;;10.20;99.90;;;;;;4999786;28;20854;-83
2023/04/09 01:43:17;;;;;;;27.60;20.00;;;10.20;99.90;;;;;;5005898;28;21028;-83
2023/04/09 01:45:44;;;;;;;25.37;20.00;;;10.30;99.90;;;;;;4998342;28;20560;-81
2023/04/09 01:48:12;;;;;;;23.57;20.07;;;10.20;99.90;;;;;;4997890;28;20903;-83
2023/04/09 01:50:40;;;;;;;25.13;20.63;;;10.20;99.90;;;;;;5006628;28;20516;-83
2023/04/09 01:53:07;;;;;;;24.43;19.30;;;10.10;99.90;;;;;;4997022;28;20934;-83
2023/04/09 01:55:33;;;;;;;22.83;19.63;;;10.20;99.90;;;;;;4998499;28;20482;-84
2023/04/09 01:58:00;;;;;;;22.97;19.63;;;10.20;99.90;;;;;;4998267;28;20493;-83
2023/04/09 02:00:38;;;;;;;23.20;20.70;;;10.20;99.90;;;;;;4999425;28;20469;-83
2023/04/09 02:03:21;;;;;;;26.30;18.90;;;10.10;99.90;;;;;;5009765;28;20451;-84
2023/04/09 02:06:04;;;;;;;22.20;18.63;;;10.00;99.90;;;;;;4999388;28;20587;-82
2023/04/09 02:08:34;;;;;;;22.70;18.90;;;10.10;99.90;;;;;;4999018;28;22372;-84
2023/04/09 02:11:05;;;;;;;22.77;18.63;;;10.00;99.90;;;;;;5010221;28;20477;-82
2023/04/09 02:13:33;;;;;;;20.67;17.67;;;9.90;99.90;;;;;;5012382;28;20464;-84
2023/04/09 02:16:02;;;;;;;22.87;18.57;;;10.10;99.90;;;;;;5002140;28;20461;-82
2023/04/09 02:18:31;;;;;;;21.90;17.50;;;10.00;99.90;;;;;;5008959;28;20458;-83
2023/04/09 02:20:58;;;;;;;21.13;18.90;;;9.90;99.90;;;;;;5004813;28;20450;-85
2023/04/09 02:23:26;;;;;;;22.10;18.37;;;9.90;99.90;;;;;;5017538;28;20462;-81
2023/04/09 02:25:53;;;;;;;21.23;17.60;;;9.80;99.90;;;;;;5005946;28;20449;-80
2023/04/09 02:28:20;;;;;;;22.83;18.97;;;10.10;99.90;;;;;;5015009;28;20481;-81
2023/04/09 02:30:46;;;;;;;21.37;18.67;;;10.20;99.90;;;;;;5008870;28;20502;-81
2023/04/09 02:33:13;;;;;;;20.40;16.50;;;10.00;99.90;;;;;;5000642;28;20553;-83
2023/04/09 02:35:40;;;;;;;20.90;17.37;;;10.10;99.90;;;;;;5010311;28;20508;-81
2023/04/09 02:38:12;;;;;;;23.10;17.50;;;9.90;99.90;;;;;;5001885;28;20451;-84
2023/04/09 02:40:42;;;;;;;21.30;18.50;;;9.80;99.90;;;;;;5001689;28;21516;-83
2023/04/09 02:43:09;;;;;;;21.20;17.37;;;9.60;99.90;;;;;;5010984;28;20450;-83
2023/04/09 02:45:36;;;;;;;21.30;18.53;;;9.70;99.90;;;;;;5016556;28;21130;-82
2023/04/09 02:48:03;;;;;;;20.40;18.10;;;9.70;99.90;;;;;;5001122;28;20512;-83
2023/04/09 02:50:29;;;;;;;22.23;16.40;;;9.70;99.90;;;;;;5002155;28;20481;-82
2023/04/09 02:52:56;;;;;;;22.77;17.53;;;9.80;99.90;;;;;;5001176;28;20454;-83
2023/04/09 02:55:23;;;;;;;22.70;17.07;;;9.80;99.90;;;;;;5000235;28;20477;-84
2023/04/09 02:57:49;;;;;;;21.57;17.50;;;9.70;99.90;;;;;;5000139;28;20539;-83
2023/04/09 03:00:16;;;;;;;18.13;15.70;;;9.60;99.90;;;;;;5000286;28;20461;-83
2023/04/09 03:02:43;;;;;;;19.93;17.83;;;9.50;99.90;;;;;;5009812;28;20465;-83
2023/04/09 03:05:09;;;;;;;19.30;16.27;;;9.60;99.90;;;;;;5005071;28;21991;-83
2023/04/09 03:07:36;;;;;;;18.20;16.00;;;9.60;99.90;;;;;;5021506;28;20450;-84
2023/04/09 03:10:03;;;;;;;21.87;17.77;;;9.60;99.90;;;;;;5015527;28;20593;-85
2023/04/09 03:12:30;;;;;;;18.30;15.53;;;9.80;99.90;;;;;;4998985;28;20514;-83
2023/04/09 03:14:57;;;;;;;17.00;15.17;;;9.80;99.90;;;;;;5009160;28;20532;-82
2023/04/09 03:17:26;;;;;;;18.63;14.87;;;9.80;99.90;;;;;;5008020;28;20452;-81
2023/04/09 03:19:53;;;;;;;18.63;15.40;;;9.80;99.90;;;;;;4999172;28;20496;-84
2023/04/09 03:22:20;;;;;;;19.13;14.87;;;9.70;99.90;;;;;;5001134;28;20493;-82
2023/04/09 03:24:46;;;;;;;19.93;16.17;;;9.70;99.90;;;;;;5007979;28;20481;-82
2023/04/09 03:27:13;;;;;;;19.70;15.70;;;9.60;99.90;;;;;;5020185;28;20497;-83
2023/04/09 03:29:40;;;;;;;20.10;15.77;;;9.70;99.90;;;;;;5019764;28;20529;-82
2023/04/09 03:32:07;;;;;;;24.20;17.33;;;9.70;99.90;;;;;;5006014;28;20506;-81
2023/04/09 03:34:35;;;;;;;18.60;14.87;;;9.60;99.90;;;;;;4993136;28;20486;-83
2023/04/09 03:37:01;;;;;;;19.43;14.67;;;9.60;99.90;;;;;;5013276;28;20466;-81
2023/04/09 03:39:29;;;;;;;18.67;14.50;;;9.40;99.90;;;;;;5011769;28;20481;-82
2023/04/09 03:41:57;;;;;;;17.77;15.50;;;9.30;99.90;;;;;;5007950;28;20457;-81
2023/04/09 03:44:24;;;;;;;19.90;16.30;;;9.40;99.90;;;;;;5008426;28;20509;-83
2023/04/09 03:46:57;;;;;;;20.17;16.10;;;9.30;99.90;;;;;;5022881;28;20465;-82
2023/04/09 03:49:28;;;;;;;19.43;16.23;;;9.40;99.90;;;;;;5010086;28;20460;-83
2023/04/09 03:51:58;;;;;;;19.60;17.00;;;9.20;99.90;;;;;;5011443;28;20505;-83
2023/04/09 03:54:30;;;;;;;18.53;15.20;;;9.40;99.90;;;;;;5014703;28;20470;-83
2023/04/09 03:56:57;;;;;;;17.43;15.03;;;9.30;99.90;;;;;;5021563;28;20548;-83
2023/04/09 03:59:24;;;;;;;18.40;16.23;;;9.30;99.90;;;;;;5022916;28;20549;-81
2023/04/09 04:01:53;;;;;;;18.97;15.57;;;9.20;99.90;;;;;;5014140;28;20517;-81
2023/04/09 04:04:25;;;;;;;19.00;15.83;;;9.10;99.90;;;;;;5008666;28;21053;-82
2023/04/09 04:06:52;;;;;;;18.50;14.80;;;9.20;99.90;;;;;;5005620;28;21008;-83
2023/04/09 04:09:19;;;;;;;18.10;16.10;;;9.40;99.90;;;;;;5004567;28;20497;-83
2023/04/09 04:11:48;;;;;;;21.43;16.90;;;9.40;99.90;;;;;;5005353;28;20509;-83
2023/04/09 04:14:15;;;;;;;20.17;16.03;;;9.40;99.90;;;;;;5008795;28;20571;-81
2023/04/09 04:16:42;;;;;;;20.73;15.33;;;9.30;99.90;;;;;;5003991;28;20446;-82
2023/04/09 04:19:17;;;;;;;17.90;15.80;;;9.20;99.90;;;;;;5017696;28;20544;-81
2023/04/09 04:21:44;;;;;;;19.80;15.47;;;9.20;99.90;;;;;;5006302;28;20469;-83
2023/04/09 04:24:35;;;;;;;23.57;16.97;;;9.00;99.90;;;;;;5044438;28;20474;-83
2023/04/09 04:27:04;;;;;;;20.23;16.83;;;9.20;99.90;;;;;;5095282;22;20553;-84
2023/04/09 04:29:33;;;;;;;21.10;15.83;;;9.10;99.90;;;;;;5022987;28;20450;-84
2023/04/09 04:31:59;;;;;;;20.87;16.03;;;9.10;99.90;;;;;;5018966;28;20481;-82
2023/04/09 04:34:34;;;;;;;19.73;15.97;;;9.10;99.90;;;;;;5183847;22;22462;-81
2023/04/09 04:37:01;;;;;;;17.03;15.23;;;8.90;99.90;;;;;;5033757;28;21008;-83
2023/04/09 04:39:30;;;;;;;18.30;15.17;;;8.90;99.90;;;;;;5034800;28;20484;-83
2023/04/09 04:41:57;;;;;;;19.67;16.40;;;9.10;99.90;;;;;;5037306;28;20465;-83
2023/04/09 04:44:24;;;;;;;20.97;17.00;;;9.00;99.90;;;;;;5026660;28;20496;-83
2023/04/09 04:46:56;;;;;;;18.20;15.17;;;9.00;99.90;;;;;;5027021;28;20588;-81
2023/04/09 04:49:25;;;;;;;20.43;15.10;;;8.90;99.90;;;;;;5019030;28;20576;-83
2023/04/09 04:51:53;;;;;;;17.17;14.70;;;8.90;99.90;;;;;;5015430;28;21079;-83
2023/04/09 04:54:21;;;;;;;17.87;15.13;;;8.90;99.90;;;;;;5020014;28;21374;-84
2023/04/09 04:56:48;;;;;;;18.67;15.47;;;9.10;99.90;;;;;;5008858;28;20560;-82
2023/04/09 04:59:15;;;;;;;17.57;14.97;;;9.10;99.90;;;;;;5019041;28;20457;-84
2023/04/09 05:01:49;;;;;;;21.50;15.43;;;9.10;99.90;;;;;;5020158;28;20845;-82
2023/04/09 05:04:22;;;;;;;19.03;15.00;;;9.30;99.90;;;;;;5018988;28;20467;-82
2023/04/09 05:06:55;;;;;;;22.20;16.70;;;9.20;99.90;;;;;;5020674;28;20961;-81
2023/04/09 05:09:26;;;;;;;17.50;14.00;;;9.10;99.90;;;;;;5009435;28;20535;-82
2023/04/09 05:11:57;;;;;;;20.80;15.30;;;9.20;99.90;;;;;;5000289;28;20560;-81
2023/04/09 05:14:24;;;;;;;20.23;15.47;;;9.30;99.90;;;;;;5017270;28;20477;-81
2023/04/09 05:16:51;;;;;;;16.63;14.33;;;9.20;99.90;;;;;;5019630;28;20483;-81
2023/04/09 05:19:18;;;;;;;19.13;15.13;;;9.20;99.90;;;;;;5036251;28;20492;-82
2023/04/09 05:21:45;;;;;;;18.20;14.60;;;9.20;99.90;;;;;;5018965;28;20468;-83
2023/04/09 05:24:12;;;;;;;16.57;13.77;;;9.30;99.90;;;;;;5024465;28;20473;-81
2023/04/09 05:26:39;;;;;;;18.50;15.23;;;9.30;99.70;;;;;;5023279;28;20476;-82
2023/04/09 05:29:06;;;;;;;19.40;14.50;;;9.20;99.70;;;;;;5026650;28;21059;-82
2023/04/09 05:31:34;;;;;;;19.70;14.43;;;9.30;99.70;;;;;;5032696;28;20611;-82
2023/04/09 05:34:00;;;;;;;21.10;15.50;;;9.50;99.40;;;;;;5023141;28;20488;-83
2023/04/09 05:36:27;;;;;;;16.80;14.17;;;9.60;98.90;;;;;;5024061;28;20562;-81
2023/04/09 05:38:54;;;;;;;16.37;13.27;;;9.60;98.70;;;;;;5025904;28;20450;-85
2023/04/09 05:41:21;;;;;;;18.73;13.87;;;9.60;98.40;;;;;;5024597;28;21002;-83
2023/04/09 05:43:48;;;;;;;17.47;13.80;;;9.70;98.20;;;;;;5022017;28;21364;-84
2023/04/09 05:46:15;;;;;;;17.40;14.10;;;9.70;97.90;;;;;;5022307;28;20463;-84
2023/04/09 05:51:14;;;;;;;15.10;13.00;;;9.50;97.60;;;;;;5013466;28;20497;-81
2023/04/09 05:53:46;;;;;;;16.50;13.00;;;9.60;97.80;;;;;;5006424;28;20548;-84
2023/04/09 05:56:28;;;;;;;19.73;13.77;;;9.60;97.70;;;;;;5008503;28;20469;-83
2023/04/09 05:58:56;;;;;;;16.50;13.27;;;9.50;97.60;;;;;;4993385;28;20971;-83
2023/04/09 06:01:26;;;;;;;16.83;11.90;;;9.70;97.80;;;;;;5010837;28;20506;-84
2023/04/09 06:03:56;;;;;;;15.13;12.17;;;9.90;98.10;;;;;;5011737;28;20546;-83
2023/04/09 06:06:24;;;;;;;16.53;13.30;;;10.50;96.60;;;;;;5003642;28;20480;-84
2023/04/09 06:09:09;;;;;;;16.87;13.03;;;11.00;95.20;;;;;;5004560;28;20485;-83
2023/04/09 06:11:36;;;;;;;16.27;12.80;;;11.20;93.70;;;;;;4996546;28;20474;-83
2023/04/09 06:14:05;;;;;;;14.70;12.03;;;11.00;93.90;;;;;;5021896;28;20454;-86
2023/04/09 06:16:39;;;;;;;16.40;10.87;;;11.00;93.80;;;;;;5022893;28;20454;-81
2023/04/09 06:19:11;;;;;;;15.70;11.47;;;10.70;94.10;;;;;;5037284;28;20711;-81
2023/04/09 06:21:41;;;;;;;12.23;10.80;;;10.80;94.50;;;;;;5020875;28;20477;-82
2023/04/09 06:24:11;;;;;;;14.20;11.30;;;11.70;95.20;;;;;;5037290;28;20470;-83
2023/04/09 06:26:53;;;;;;;14.37;12.63;;;13.60;92.80;;;;;;5024340;28;20474;-83
2023/04/09 06:29:24;;;;;;;15.10;11.83;;;14.40;87.40;;;;;;5017592;28;20461;-84
2023/04/09 06:31:52;;;;;;;13.87;11.13;;;15.10;86.20;;;;;;5016724;28;20478;-84
2023/04/09 06:34:28;;;;;;;15.10;11.27;;;15.50;81.60;;;;;;5010821;28;20471;-82
2023/04/09 06:37:03;;;;;;;13.67;10.80;;;16.60;78.70;;;;;;5010978;28;20457;-83
2023/04/09 06:39:42;;;;;;;12.30;10.53;;;17.90;72.20;;;;;;5009537;28;20450;-83
2023/04/09 06:42:26;;;;;;;12.47;10.70;;;17.60;68.70;;;;;;4990074;28;20461;-83
2023/04/09 06:45:13;;;;;;;11.67;9.90;;;17.70;67.40;;;;;;5011116;28;20527;-83
2023/04/09 06:47:50;;;;;;;13.93;11.23;;;17.90;67.10;;;;;;5007024;28;20454;-82
2023/04/09 06:50:28;;;;;;;12.23;11.03;;;19.50;64.10;;;;;;4992174;28;21153;-83
2023/04/09 06:53:04;;;;;;;12.43;11.13;;;20.50;59.10;;;;;;5002404;28;20508;-82
2023/04/09 06:55:32;;;;;;;15.63;10.03;;;19.40;57.80;;;;;;4989217;28;20572;-82
2023/04/09 06:58:21;;;;;;;11.43;10.30;;;18.30;58.80;;;;;;4987397;28;21054;-83
2023/04/09 07:01:01;;;;;;;10.53;9.50;;;18.50;61.20;;;;;;4990155;28;20470;-83
2023/04/09 07:03:38;;;;;;;11.50;10.30;;;19.90;58.90;;;;;;4989516;28;20477;-83
2023/04/09 07:06:15;;;;;;;10.33;9.23;;;20.70;56.90;;;;;;4981515;28;20467;-81
2023/04/09 07:08:49;;;;;;;10.87;9.77;;;21.20;54.00;;;;;;4990205;28;21395;-82
2023/04/09 07:11:25;;;;;;;11.20;9.43;;;19.90;54.70;;;;;;4998271;28;20566;-82
2023/04/09 07:13:58;;;;;;;10.63;9.47;;;19.50;57.00;;;;;;4984303;28;20493;-82
2023/04/09 07:16:39;;;;;;;11.43;9.90;;;20.50;56.00;;;;;;4983057;28;20595;-84
2023/04/09 07:19:12;;;;;;;10.43;9.30;;;21.90;54.00;;;;;;5000554;28;20457;-84
2023/04/09 07:21:49;;;;;;;10.57;9.47;;;22.10;52.00;;;;;;5003009;28;20473;-83
2023/04/09 07:24:39;;;;;;;10.00;8.90;;;22.30;51.70;;;;;;4988117;28;20494;-82
2023/04/09 07:27:16;;;;;;;9.93;8.93;;;22.90;49.60;;;;;;5005177;28;20459;-83
2023/04/09 07:29:46;;;;;;;11.60;10.00;;;22.60;49.70;;;;;;4988321;28;20591;-83
2023/04/09 07:32:32;;;;;;;12.83;8.90;;;22.50;49.00;;;;;;4989915;28;21782;-83
2023/04/09 07:35:08;;;;;;;9.80;8.80;;;23.10;48.80;;;;;;4993519;28;20462;-84
2023/04/09 07:37:51;;;;;;;11.67;9.67;;;23.10;48.00;;;;;;4998023;28;20447;-84
2023/04/09 07:40:36;;;;;;;10.20;9.10;;;23.20;47.70;;;;;;5002577;28;20454;-84
2023/04/09 07:43:16;;;;;;;10.57;9.10;;;23.40;47.20;;;;;;4996323;28;20458;-84
2023/04/09 07:46:02;;;;;;;11.53;10.00;;;23.30;46.50;;;;;;4995526;28;20482;-85
2023/04/09 07:49:05;;;;;;;9.60;8.63;;;23.50;46.50;;;;;;4996524;28;20611;-84
2023/04/09 07:51:42;;;;;;;10.40;9.30;;;24.00;46.50;;;;;;5001382;28;20458;-83
2023/04/09 07:54:24;;;;;;;10.00;9.07;;;24.60;45.20;;;;;;5016034;28;20528;-84
2023/04/09 07:57:08;;;;;;;9.17;7.97;;;24.50;44.10;;;;;;4981268;28;20476;-81
2023/04/09 08:00:17;;;;;;;10.03;8.83;;;24.90;43.90;;;;;;4988685;28;20466;-83
2023/04/09 08:03:19;;;;;;;11.13;9.20;;;24.40;43.50;;;;;;4997293;28;20495;-85
2023/04/09 08:05:46;;;;;;;8.60;7.77;;;23.50;44.10;;;;;;5012937;28;20481;-83
2023/04/09 08:08:25;;;;;;;10.03;8.33;;;23.30;44.20;;;;;;5013667;28;20806;-81
2023/04/09 08:11:11;;;;;;;8.47;7.00;;;23.30;44.60;;;;;;5010700;28;20480;-83
2023/04/09 08:16:49;;;;;;;7.43;6.80;;;23.90;43.80;;;;;;5015007;28;20531;-81
2023/04/09 08:19:20;;;;;;;7.87;7.10;;;24.40;43.50;;;;;;5021294;28;20694;-83
2023/04/09 08:22:15;;;;;;;7.30;6.60;;;24.80;42.40;;;;;;5014170;28;20513;-84
2023/04/09 08:24:58;;;;;;;9.07;8.23;;;25.20;41.40;;;;;;4998264;28;20473;-83
2023/04/09 08:27:50;;;;;;;7.50;6.80;;;24.60;41.40;;;;;;4987402;28;20624;-82
2023/04/09 08:30:33;;;;;;;8.50;7.60;;;24.40;41.90;;;;;;4988959;28;20464;-81
2023/04/09 08:33:13;;;;;;;8.07;7.17;;;24.00;42.20;;;;;;4990468;28;20504;-81
2023/04/09 08:35:54;;;;;;;8.80;7.90;;;24.50;42.30;;;;;;4988601;28;21104;-82
2023/04/09 08:38:37;;;;;;;7.27;6.57;;;25.30;41.80;;;;;;5000794;28;20539;-84
2023/04/09 08:41:21;;;;;;;7.00;6.40;;;25.30;40.10;;;;;;4983991;28;20462;-84
2023/04/09 08:44:07;;;;;;;8.03;7.27;;;24.40;40.70;;;;;;4984368;28;20496;-82
2023/04/09 08:46:46;;;;;;;8.30;7.50;;;24.40;41.50;;;;;;4996793;28;20462;-81
2023/04/09 08:49:19;;;;;;;7.20;6.60;;;25.10;40.80;;;;;;5000025;28;20474;-81
2023/04/09 08:52:15;;;;;;;6.97;6.37;;;24.80;40.60;;;;;;4982593;28;20487;-83
2023/04/09 08:55:00;;;;;;;6.90;6.30;;;24.90;40.30;;;;;;5005114;28;22574;-82
2023/04/09 08:58:03;;;;;;;7.37;6.70;;;25.70;38.40;;;;;;4993306;28;20718;-82
2023/04/09 09:00:46;;;;;;;7.27;6.57;;;25.60;38.30;;;;;;4983576;28;20458;-83
2023/04/09 09:03:21;;;;;;;7.00;6.40;;;25.40;38.40;;;;;;4987326;28;20514;-83
2023/04/09 09:06:02;;;;;;;8.00;7.20;;;25.50;38.90;;;;;;4991566;28;20609;-83
2023/04/09 09:09:01;;;;;;;7.57;6.87;;;25.90;38.10;;;;;;4984553;28;20458;-82
2023/04/09 09:11:49;;;;;;;6.60;6.00;;;25.70;37.90;;;;;;4998058;28;20509;-81
2023/04/09 09:14:25;;;;;;;6.50;6.00;;;25.20;38.00;;;;;;5003153;28;20479;-82
2023/04/09 09:17:02;;;;;;;7.93;7.13;;;25.40;37.10;;;;;;4984011;28;20534;-83
2023/04/09 09:19:46;;;;;;;7.57;6.07;;;25.10;37.20;;;;;;4990612;28;20470;-84
2023/04/09 09:22:53;;;;;;;6.00;5.50;;;25.30;37.50;;;;;;4989195;28;20494;-81
2023/04/09 09:25:33;;;;;;;7.27;6.07;;;25.70;36.60;;;;;;4987375;28;20502;-83
2023/04/09 09:28:23;;;;;;;6.63;6.03;;;25.70;35.70;;;;;;4991309;28;20978;-85
2023/04/09 09:31:15;;;;;;;6.20;5.60;;;25.30;36.50;;;;;;4986648;28;20475;-81
2023/04/09 09:33:49;;;;;;;5.13;4.73;;;24.00;36.10;;;;;;4989747;28;20509;-82
2023/04/09 09:36:36;;;;;;;5.27;4.77;;;23.30;36.90;;;;;;4984315;28;20744;-83
2023/04/09 09:39:11;;;;;;;7.33;5.67;;;24.00;37.00;;;;;;5003577;28;20450;-81
2023/04/09 09:42:09;;;;;;;6.50;6.00;;;24.30;37.30;;;;;;5005685;28;20454;-84
2023/04/09 09:44:40;;;;;;;6.33;5.73;;;23.70;36.80;;;;;;4991979;28;20489;-84
2023/04/09 09:47:19;;;;;;;7.50;6.67;;;24.00;36.80;;;;;;4984360;28;20470;-83
2023/04/09 09:50:31;;;;;;;7.80;7.10;;;23.50;37.50;;;;;;5007095;28;20885;-84
2023/04/09 09:53:10;;;;;;;7.90;6.90;;;22.80;38.60;;;;;;4943643;28;20474;-83
2023/04/09 09:59:00;;;;;;;6.20;5.60;;;22.70;39.10;;;;;;4962642;28;20883;-82
2023/04/09 10:01:47;;;;;;;5.97;5.40;;;22.70;38.80;;;;;;4966157;28;20467;-83
2023/04/09 10:04:37;;;;;;;6.17;5.60;;;22.90;38.50;;;;;;4964939;28;21016;-84
2023/04/09 10:07:38;;;;;;;6.43;5.83;;;24.10;37.90;;;;;;4950470;28;20493;-84
2023/04/09 10:10:25;;;;;;;5.90;5.40;;;23.60;37.10;;;;;;4945652;28;20464;-82
2023/04/09 10:13:49;;;;;;;7.50;6.80;;;23.00;37.40;;;;;;4939889;28;22032;-83
2023/04/09 10:16:17;;;;;;;7.10;6.40;;;22.70;39.00;;;;;;4944961;28;20462;-85
2023/04/09 10:19:11;;;;;;;6.97;6.37;;;23.10;38.50;;;;;;4963807;28;20456;-83
2023/04/09 10:22:35;;;;;;;6.80;6.13;;;22.20;39.20;;;;;;4948607;28;20452;-82
2023/04/09 10:25:32;;;;;;;7.60;6.80;;;21.70;40.60;;;;;;4950117;28;20527;-84
2023/04/09 10:28:30;;;;;;;7.17;6.33;;;21.60;40.20;;;;;;4921462;28;20448;-84
2023/04/09 10:31:43;;;;;;;6.83;6.10;;;21.80;40.00;;;;;;4897276;29;21340;-83
2023/04/09 10:34:47;;;;;;;7.90;6.03;;;20.20;41.10;;;;;;4914187;29;20493;-82
2023/04/09 10:37:37;;;;;;;7.23;6.57;;;20.40;42.10;;;;;;4830627;29;20437;-82
2023/04/09 10:40:52;;;;;;;7.43;6.83;;;20.90;41.30;;;;;;4849996;29;20452;-85
2023/04/09 10:43:51;;;;;;;7.03;6.30;;;20.80;41.30;;;;;;4861358;29;20468;-83
2023/04/09 10:47:01;;;;;;;7.93;7.13;;;21.30;41.50;;;;;;4856778;29;20460;-82
2023/04/09 10:49:56;;;;;;;6.90;6.20;;;21.40;41.00;;;;;;4867776;29;21318;-83
2023/04/09 10:52:59;;;;;;;6.87;6.23;;;22.30;39.80;;;;;;4864216;29;20496;-85
2023/04/09 10:56:13;;;;;;;6.80;6.10;;;22.10;39.40;;;;;;4911104;29;20466;-83
2023/04/09 10:58:54;;;;;;;6.83;6.23;;;21.90;40.20;;;;;;4909385;29;20456;-83
2023/04/09 11:01:29;;;;;;;7.37;6.00;;;21.70;41.20;;;;;;4916383;29;20553;-84
2023/04/09 11:04:41;;;;;;;;;;;;;;;;;;;;;
2023/04/09 11:07:40;;;;;;;8.50;7.63;;;21.30;40.80;;;;;;4915584;29;20462;-84
2023/04/09 11:10:25;;;;;;;7.20;6.50;;;20.20;42.10;;;;;;4909812;29;20490;-82
2023/04/09 11:13:19;;;;;;;8.60;7.83;;;20.50;43.50;;;;;;4907182;29;21139;-82
2023/04/09 11:16:05;;;;;;;8.13;7.33;;;20.30;43.60;;;;;;4947038;28;20496;-83
2023/04/09 11:18:54;;;;;;;6.93;6.23;;;20.50;43.90;;;;;;4961162;28;20461;-82
2023/04/09 11:21:36;;;;;;;7.37;6.67;;;20.50;42.70;;;;;;4950636;28;20449;-84
2023/04/09 11:24:45;;;;;;;6.80;6.13;;;20.20;42.70;;;;;;4917449;28;20502;-80
2023/04/09 11:27:29;;;;;;;6.63;5.90;;;19.90;42.70;;;;;;4951141;28;20523;-83
2023/04/09 11:30:18;;;;;;;6.00;5.43;;;20.00;43.60;;;;;;4946165;28;20472;-82
2023/04/09 11:33:10;;;;;;;6.43;5.83;;;20.50;42.90;;;;;;4946519;28;20491;-81
2023/04/09 11:35:58;;;;;;;8.73;7.37;;;19.90;43.90;;;;;;4978638;28;20479;-82
2023/04/09 11:38:38;;;;;;;7.63;6.83;;;19.70;44.50;;;;;;4965596;28;20456;-83
2023/04/09 11:41:50;;;;;;;6.93;6.07;;;20.70;44.10;;;;;;4949077;28;20465;-82
2023/04/09 11:44:37;;;;;;;8.53;5.77;;;21.30;42.40;;;;;;4949422;28;22386;-81
2023/04/09 11:47:22;;;;;;;7.43;6.73;;;21.30;41.70;;;;;;4936134;28;20448;-83
2023/04/09 11:50:14;;;;;;;7.17;6.47;;;21.40;42.60;;;;;;4953330;28;20464;-84
2023/04/09 11:52:57;;;;;;;7.10;6.20;;;22.10;41.70;;;;;;4954882;28;20556;-83
2023/04/09 11:55:38;;;;;;;9.00;8.10;;;21.50;41.40;;;;;;4956047;28;20507;-83
2023/04/09 11:58:49;;;;;;;6.80;6.20;;;20.70;42.80;;;;;;4932353;28;20561;-81
2023/04/09 12:01:50;;;;;;;7.83;7.03;;;20.70;43.00;;;;;;4954819;28;20460;-82
2023/04/09 12:04:23;;;;;;;8.40;6.83;;;19.90;43.50;;;;;;4949355;28;20514;-83
2023/04/09 12:06:57;;;;;;;6.83;6.23;;;19.20;45.20;;;;;;4964166;28;20528;-82
2023/04/09 12:10:04;;;;;;;6.70;6.00;;;19.60;45.40;;;;;;4954790;28;20471;-82
2023/04/09 12:13:08;;;;;;;7.40;6.53;;;20.40;44.80;;;;;;4945578;28;20467;-84
2023/04/09 12:15:55;;;;;;;6.50;5.80;;;20.40;43.50;;;;;;4954762;28;20479;-84
2023/04/09 12:18:47;;;;;;;7.87;7.07;;;20.50;43.30;;;;;;4944876;28;20496;-85
2023/04/09 12:21:46;;;;;;;6.83;6.10;;;20.50;42.90;;;;;;4957447;28;20465;-82
2023/04/09 12:24:29;;;;;;;7.27;6.67;;;19.90;43.90;;;;;;4948810;28;20507;-81
2023/04/09 12:27:06;;;;;;;6.73;5.80;;;19.60;44.80;;;;;;4946324;28;20546;-83
2023/04/09 12:29:40;;;;;;;7.33;6.63;;;19.30;44.80;;;;;;4943391;28;20453;-81
2023/04/09 12:32:37;;;;;;;5.43;4.93;;;19.50;45.10;;;;;;4943287;28;20478;-83
2023/04/09 12:35:11;;;;;;;5.73;5.20;;;19.40;44.10;;;;;;4946427;28;20491;-83
2023/04/09 12:38:14;;;;;;;6.07;5.47;;;19.00;44.10;;;;;;4951850;28;20461;-81
2023/04/09 12:41:00;;;;;;;5.73;5.23;;;18.60;44.80;;;;;;4945497;28;20791;-83
2023/04/09 12:43:46;;;;;;;6.27;5.67;;;18.50;46.20;;;;;;4944029;28;20477;-85
2023/04/09 12:46:27;;;;;;;6.10;5.50;;;18.50;45.70;;;;;;4945847;28;20467;-83
2023/04/09 12:49:31;;;;;;;6.47;5.33;;;18.30;45.80;;;;;;4945938;28;20471;-83
2023/04/09 12:52:17;;;;;;;5.43;4.93;;;18.30;46.10;;;;;;4955459;28;22126;-83
2023/04/09 12:55:16;;;;;;;5.83;5.23;;;18.20;46.20;;;;;;4943048;28;22508;-83
2023/04/09 12:58:12;;;;;;;6.83;4.53;;;18.10;46.00;;;;;;4943696;28;20482;-81
2023/04/09 13:00:58;;;;;;;6.27;5.63;;;18.10;46.50;;;;;;4943852;28;20457;-83
2023/04/09 13:04:02;;;;;;;5.97;5.33;;;17.80;47.10;;;;;;4944483;28;21886;-84
2023/04/09 13:07:07;;;;;;;6.83;5.50;;;17.50;47.90;;;;;;4950979;28;20468;-84
2023/04/09 13:09:51;;;;;;;5.70;5.07;;;17.60;47.30;;;;;;4943731;28;20490;-82
2023/04/09 13:12:30;;;;;;;6.13;5.43;;;17.50;47.30;;;;;;4943311;28;20457;-83
2023/04/09 13:15:00;;;;;;;6.70;5.77;;;17.50;47.70;;;;;;4952586;28;22210;-83
2023/04/09 13:17:42;;;;;;;5.50;5.00;;;17.40;48.10;;;;;;4945092;28;20457;-84
2023/04/09 13:20:24;;;;;;;7.67;5.87;;;17.40;48.20;;;;;;4940999;28;20468;-84
2023/04/09 13:23:01;;;;;;;6.10;5.50;;;17.80;48.20;;;;;;4943611;28;20579;-85
2023/04/09 13:26:00;;;;;;;5.53;5.03;;;17.80;47.70;;;;;;4959258;28;20479;-84
2023/04/09 13:29:22;;;;;;;7.83;6.07;;;17.80;47.80;;;;;;4946017;28;20467;-84
2023/04/09 13:32:10;;;;;;;4.80;4.40;;;17.70;47.80;;;;;;4951341;28;20467;-82
2023/04/09 13:34:41;;;;;;;6.40;5.80;;;17.70;46.60;;;;;;4953152;28;20582;-84
2023/04/09 13:37:35;;;;;;;6.20;5.47;;;17.60;47.70;;;;;;4946046;28;20457;-84
2023/04/09 13:40:47;;;;;;;6.13;5.53;;;17.50;48.00;;;;;;4943838;28;21022;-84
2023/04/09 13:43:26;;;;;;;5.80;5.10;;;17.80;48.20;;;;;;4943354;28;20592;-85
2023/04/09 13:46:23;;;;;;;6.10;5.47;;;18.00;47.30;;;;;;4956821;28;20464;-84